sensor_id;sensor_type;location;lat;lon;timestamp;P1;durP1;ratioP1;P2;durP2;ratioP2
11771;SDS011;12556;55.748;13.194;2022-12-07T00:00:01;8.43;;;6.70;;
11771;SDS011;12556;55.748;13.194;2022-12-07T00:02:30;6.73;;;6.00;;
11771;SDS011;12556;55.748;13.194;2022-12-07T00:04:57;7.47;;;6.20;;
11771;SDS011;12556;55.748;13.194;2022-12-07T00:07:24;7.67;;;5.83;;
11771;SDS011;12556;55.748;13.194;2022-12-07T00:09:51;6.97;;;5.87;;
11771;SDS011;12556;55.748;13.194;2022-12-07T00:12:18;7.40;;;6.33;;
11771;SDS011;12556;55.748;13.194;2022-12-07T00:14:45;8.07;;;5.40;;
11771;SDS011;12556;55.748;13.194;2022-12-07T00:17:13;7.13;;;5.60;;
11771;SDS011;12556;55.748;13.194;2022-12-07T00:19:41;7.67;;;5.83;;
11771;SDS011;12556;55.748;13.194;2022-12-07T00:22:08;6.77;;;5.87;;
11771;SDS011;12556;55.748;13.194;2022-12-07T00:24:35;7.97;;;5.90;;
11771;SDS011;12556;55.748;13.194;2022-12-07T00:27:01;7.73;;;6.10;;
11771;SDS011;12556;55.748;13.194;2022-12-07T00:29:28;8.07;;;6.00;;
11771;SDS011;12556;55.748;13.194;2022-12-07T00:31:55;7.87;;;5.87;;
11771;SDS011;12556;55.748;13.194;2022-12-07T00:34:22;6.63;;;5.73;;
11771;SDS011;12556;55.748;13.194;2022-12-07T00:36:50;6.50;;;5.33;;
11771;SDS011;12556;55.748;13.194;2022-12-07T00:39:17;7.37;;;5.73;;
11771;SDS011;12556;55.748;13.194;2022-12-07T00:41:44;10.27;;;6.13;;
11771;SDS011;12556;55.748;13.194;2022-12-07T00:44:12;8.67;;;6.37;;
11771;SDS011;12556;55.748;13.194;2022-12-07T00:46:39;8.50;;;6.70;;
11771;SDS011;12556;55.748;13.194;2022-12-07T00:49:06;8.17;;;6.50;;
11771;SDS011;12556;55.748;13.194;2022-12-07T00:51:33;10.77;;;6.77;;
11771;SDS011;12556;55.748;13.194;2022-12-07T00:54:01;6.73;;;5.27;;
11771;SDS011;12556;55.748;13.194;2022-12-07T00:56:28;6.33;;;5.73;;
11771;SDS011;12556;55.748;13.194;2022-12-07T00:58:56;7.63;;;5.93;;
11771;SDS011;12556;55.748;13.194;2022-12-07T01:01:25;8.47;;;5.63;;
11771;SDS011;12556;55.748;13.194;2022-12-07T01:03:53;6.03;;;5.30;;
11771;SDS011;12556;55.748;13.194;2022-12-07T01:06:21;8.43;;;6.30;;
11771;SDS011;12556;55.748;13.194;2022-12-07T01:08:49;8.53;;;6.30;;
11771;SDS011;12556;55.748;13.194;2022-12-07T01:11:18;7.10;;;6.10;;
11771;SDS011;12556;55.748;13.194;2022-12-07T01:13:49;8.97;;;6.03;;
11771;SDS011;12556;55.748;13.194;2022-12-07T01:16:16;7.30;;;5.50;;
11771;SDS011;12556;55.748;13.194;2022-12-07T01:18:45;9.03;;;6.73;;
11771;SDS011;12556;55.748;13.194;2022-12-07T01:21:13;9.97;;;6.17;;
11771;SDS011;12556;55.748;13.194;2022-12-07T01:23:42;7.30;;;6.40;;
11771;SDS011;12556;55.748;13.194;2022-12-07T01:26:09;9.17;;;6.30;;
11771;SDS011;12556;55.748;13.194;2022-12-07T01:28:40;7.60;;;5.90;;
11771;SDS011;12556;55.748;13.194;2022-12-07T01:31:07;6.00;;;5.40;;
11771;SDS011;12556;55.748;13.194;2022-12-07T01:33:37;9.37;;;6.50;;
11771;SDS011;12556;55.748;13.194;2022-12-07T01:36:05;8.23;;;6.33;;
11771;SDS011;12556;55.748;13.194;2022-12-07T01:38:33;10.13;;;6.37;;
11771;SDS011;12556;55.748;13.194;2022-12-07T01:41:00;7.97;;;6.60;;
11771;SDS011;12556;55.748;13.194;2022-12-07T01:43:29;7.90;;;6.07;;
11771;SDS011;12556;55.748;13.194;2022-12-07T01:45:59;8.70;;;6.67;;
11771;SDS011;12556;55.748;13.194;2022-12-07T01:48:27;7.27;;;6.10;;
11771;SDS011;12556;55.748;13.194;2022-12-07T01:50:59;8.33;;;6.03;;
11771;SDS011;12556;55.748;13.194;2022-12-07T01:53:28;9.17;;;7.10;;
11771;SDS011;12556;55.748;13.194;2022-12-07T01:55:56;11.33;;;6.30;;
11771;SDS011;12556;55.748;13.194;2022-12-07T01:58:25;9.77;;;6.57;;
11771;SDS011;12556;55.748;13.194;2022-12-07T02:00:52;7.93;;;6.30;;
11771;SDS011;12556;55.748;13.194;2022-12-07T02:03:21;8.27;;;6.33;;
11771;SDS011;12556;55.748;13.194;2022-12-07T02:05:52;8.63;;;6.17;;
11771;SDS011;12556;55.748;13.194;2022-12-07T02:08:20;7.30;;;6.40;;
11771;SDS011;12556;55.748;13.194;2022-12-07T02:10:48;11.50;;;6.90;;
11771;SDS011;12556;55.748;13.194;2022-12-07T02:13:15;8.57;;;6.33;;
11771;SDS011;12556;55.748;13.194;2022-12-07T02:15:47;10.23;;;6.77;;
11771;SDS011;12556;55.748;13.194;2022-12-07T02:18:38;10.43;;;7.07;;
11771;SDS011;12556;55.748;13.194;2022-12-07T02:21:16;9.17;;;6.97;;
11771;SDS011;12556;55.748;13.194;2022-12-07T02:23:59;9.13;;;6.97;;
11771;SDS011;12556;55.748;13.194;2022-12-07T02:29:52;8.67;;;7.17;;
11771;SDS011;12556;55.748;13.194;2022-12-07T02:32:25;9.63;;;7.10;;
11771;SDS011;12556;55.748;13.194;2022-12-07T02:34:58;7.70;;;6.90;;
11771;SDS011;12556;55.748;13.194;2022-12-07T02:37:33;7.53;;;6.67;;
11771;SDS011;12556;55.748;13.194;2022-12-07T02:40:04;10.23;;;7.73;;
11771;SDS011;12556;55.748;13.194;2022-12-07T02:42:38;9.77;;;7.87;;
11771;SDS011;12556;55.748;13.194;2022-12-07T02:45:10;11.57;;;8.20;;
11771;SDS011;12556;55.748;13.194;2022-12-07T02:47:39;9.27;;;7.50;;
11771;SDS011;12556;55.748;13.194;2022-12-07T02:50:07;12.03;;;7.83;;
11771;SDS011;12556;55.748;13.194;2022-12-07T02:52:35;8.93;;;7.63;;
11771;SDS011;12556;55.748;13.194;2022-12-07T02:55:02;10.33;;;8.03;;
11771;SDS011;12556;55.748;13.194;2022-12-07T02:57:42;10.30;;;8.40;;
11771;SDS011;12556;55.748;13.194;2022-12-07T03:00:21;11.53;;;8.67;;
11771;SDS011;12556;55.748;13.194;2022-12-07T03:02:50;9.77;;;8.37;;
11771;SDS011;12556;55.748;13.194;2022-12-07T03:05:32;10.00;;;7.70;;
11771;SDS011;12556;55.748;13.194;2022-12-07T03:08:11;10.23;;;7.33;;
11771;SDS011;12556;55.748;13.194;2022-12-07T03:10:47;12.47;;;7.50;;
11771;SDS011;12556;55.748;13.194;2022-12-07T03:13:22;10.13;;;7.77;;
11771;SDS011;12556;55.748;13.194;2022-12-07T03:15:57;8.73;;;7.30;;
11771;SDS011;12556;55.748;13.194;2022-12-07T03:18:29;9.67;;;7.33;;
11771;SDS011;12556;55.748;13.194;2022-12-07T03:20:58;9.00;;;6.90;;
11771;SDS011;12556;55.748;13.194;2022-12-07T03:23:28;10.50;;;8.07;;
11771;SDS011;12556;55.748;13.194;2022-12-07T03:26:00;11.03;;;7.80;;
11771;SDS011;12556;55.748;13.194;2022-12-07T03:28:29;8.87;;;7.40;;
11771;SDS011;12556;55.748;13.194;2022-12-07T03:31:01;10.43;;;8.30;;
11771;SDS011;12556;55.748;13.194;2022-12-07T03:33:33;9.50;;;7.90;;
11771;SDS011;12556;55.748;13.194;2022-12-07T03:36:06;9.67;;;7.17;;
11771;SDS011;12556;55.748;13.194;2022-12-07T03:38:38;9.90;;;8.07;;
11771;SDS011;12556;55.748;13.194;2022-12-07T03:41:09;9.93;;;7.33;;
11771;SDS011;12556;55.748;13.194;2022-12-07T03:43:40;9.27;;;7.67;;
11771;SDS011;12556;55.748;13.194;2022-12-07T03:46:11;7.50;;;6.60;;
11771;SDS011;12556;55.748;13.194;2022-12-07T03:48:46;10.30;;;7.87;;
11771;SDS011;12556;55.748;13.194;2022-12-07T03:51:22;11.20;;;7.47;;
11771;SDS011;12556;55.748;13.194;2022-12-07T03:53:53;9.73;;;7.93;;
11771;SDS011;12556;55.748;13.194;2022-12-07T03:56:25;12.47;;;8.33;;
11771;SDS011;12556;55.748;13.194;2022-12-07T03:58:54;11.43;;;7.60;;
11771;SDS011;12556;55.748;13.194;2022-12-07T04:01:23;10.87;;;7.80;;
11771;SDS011;12556;55.748;13.194;2022-12-07T04:03:50;10.70;;;7.77;;
11771;SDS011;12556;55.748;13.194;2022-12-07T04:06:17;11.10;;;7.30;;
11771;SDS011;12556;55.748;13.194;2022-12-07T04:08:44;10.43;;;7.33;;
11771;SDS011;12556;55.748;13.194;2022-12-07T04:11:11;9.57;;;7.73;;
11771;SDS011;12556;55.748;13.194;2022-12-07T04:13:38;9.40;;;8.37;;
11771;SDS011;12556;55.748;13.194;2022-12-07T04:16:19;10.33;;;7.53;;
11771;SDS011;12556;55.748;13.194;2022-12-07T04:18:47;11.13;;;7.53;;
11771;SDS011;12556;55.748;13.194;2022-12-07T04:21:15;12.30;;;8.23;;
11771;SDS011;12556;55.748;13.194;2022-12-07T04:23:42;9.03;;;7.27;;
11771;SDS011;12556;55.748;13.194;2022-12-07T04:26:08;10.17;;;7.13;;
11771;SDS011;12556;55.748;13.194;2022-12-07T04:28:35;11.17;;;6.93;;
11771;SDS011;12556;55.748;13.194;2022-12-07T04:31:02;9.30;;;7.83;;
11771;SDS011;12556;55.748;13.194;2022-12-07T04:33:29;12.60;;;8.90;;
11771;SDS011;12556;55.748;13.194;2022-12-07T04:35:57;11.60;;;7.97;;
11771;SDS011;12556;55.748;13.194;2022-12-07T04:38:24;9.00;;;7.43;;
11771;SDS011;12556;55.748;13.194;2022-12-07T04:40:51;9.43;;;7.70;;
11771;SDS011;12556;55.748;13.194;2022-12-07T04:43:18;11.97;;;7.20;;
11771;SDS011;12556;55.748;13.194;2022-12-07T04:45:45;8.87;;;7.67;;
11771;SDS011;12556;55.748;13.194;2022-12-07T04:48:13;9.93;;;7.00;;
11771;SDS011;12556;55.748;13.194;2022-12-07T04:50:40;9.97;;;7.47;;
11771;SDS011;12556;55.748;13.194;2022-12-07T04:53:08;10.57;;;7.57;;
11771;SDS011;12556;55.748;13.194;2022-12-07T04:55:35;10.17;;;7.83;;
11771;SDS011;12556;55.748;13.194;2022-12-07T04:58:02;9.63;;;7.53;;
11771;SDS011;12556;55.748;13.194;2022-12-07T05:00:29;11.83;;;8.17;;
11771;SDS011;12556;55.748;13.194;2022-12-07T05:02:56;11.37;;;7.80;;
11771;SDS011;12556;55.748;13.194;2022-12-07T05:05:23;10.37;;;7.63;;
11771;SDS011;12556;55.748;13.194;2022-12-07T05:07:50;13.23;;;7.43;;
11771;SDS011;12556;55.748;13.194;2022-12-07T05:10:18;11.17;;;7.43;;
11771;SDS011;12556;55.748;13.194;2022-12-07T05:12:46;12.73;;;8.17;;
11771;SDS011;12556;55.748;13.194;2022-12-07T05:15:13;12.00;;;7.83;;
11771;SDS011;12556;55.748;13.194;2022-12-07T05:17:40;11.67;;;7.47;;
11771;SDS011;12556;55.748;13.194;2022-12-07T05:20:08;10.77;;;7.70;;
11771;SDS011;12556;55.748;13.194;2022-12-07T05:22:36;12.87;;;7.47;;
11771;SDS011;12556;55.748;13.194;2022-12-07T05:25:03;8.90;;;6.67;;
11771;SDS011;12556;55.748;13.194;2022-12-07T05:27:31;9.90;;;7.23;;
11771;SDS011;12556;55.748;13.194;2022-12-07T05:29:58;9.47;;;7.23;;
11771;SDS011;12556;55.748;13.194;2022-12-07T05:32:25;11.00;;;7.10;;
11771;SDS011;12556;55.748;13.194;2022-12-07T05:34:52;8.87;;;6.63;;
11771;SDS011;12556;55.748;13.194;2022-12-07T05:37:19;11.03;;;7.87;;
11771;SDS011;12556;55.748;13.194;2022-12-07T05:39:46;13.87;;;7.93;;
11771;SDS011;12556;55.748;13.194;2022-12-07T05:42:13;8.13;;;6.90;;
11771;SDS011;12556;55.748;13.194;2022-12-07T05:44:43;9.37;;;7.03;;
11771;SDS011;12556;55.748;13.194;2022-12-07T05:47:11;10.17;;;6.93;;
11771;SDS011;12556;55.748;13.194;2022-12-07T05:49:39;7.87;;;6.37;;
11771;SDS011;12556;55.748;13.194;2022-12-07T05:52:06;9.70;;;6.57;;
11771;SDS011;12556;55.748;13.194;2022-12-07T05:54:33;9.67;;;7.07;;
11771;SDS011;12556;55.748;13.194;2022-12-07T05:57:00;11.80;;;8.67;;
11771;SDS011;12556;55.748;13.194;2022-12-07T05:59:27;11.60;;;7.00;;
11771;SDS011;12556;55.748;13.194;2022-12-07T06:01:56;7.07;;;6.30;;
11771;SDS011;12556;55.748;13.194;2022-12-07T06:04:24;9.73;;;7.00;;
11771;SDS011;12556;55.748;13.194;2022-12-07T06:06:52;10.13;;;7.63;;
11771;SDS011;12556;55.748;13.194;2022-12-07T06:09:19;9.83;;;6.97;;
11771;SDS011;12556;55.748;13.194;2022-12-07T06:11:48;12.83;;;7.03;;
11771;SDS011;12556;55.748;13.194;2022-12-07T06:14:32;11.07;;;7.30;;
11771;SDS011;12556;55.748;13.194;2022-12-07T06:17:01;11.03;;;6.60;;
11771;SDS011;12556;55.748;13.194;2022-12-07T06:19:28;10.17;;;6.83;;
11771;SDS011;12556;55.748;13.194;2022-12-07T06:21:55;11.03;;;7.20;;
11771;SDS011;12556;55.748;13.194;2022-12-07T06:24:22;10.20;;;6.90;;
11771;SDS011;12556;55.748;13.194;2022-12-07T06:26:49;10.63;;;7.03;;
11771;SDS011;12556;55.748;13.194;2022-12-07T06:29:16;10.43;;;7.40;;
11771;SDS011;12556;55.748;13.194;2022-12-07T06:31:44;9.90;;;6.97;;
11771;SDS011;12556;55.748;13.194;2022-12-07T06:34:13;9.30;;;6.63;;
11771;SDS011;12556;55.748;13.194;2022-12-07T06:36:41;10.50;;;6.60;;
11771;SDS011;12556;55.748;13.194;2022-12-07T06:39:09;12.43;;;7.63;;
11771;SDS011;12556;55.748;13.194;2022-12-07T06:41:36;12.50;;;8.10;;
11771;SDS011;12556;55.748;13.194;2022-12-07T06:44:04;11.27;;;7.43;;
11771;SDS011;12556;55.748;13.194;2022-12-07T06:46:31;19.73;;;13.83;;
11771;SDS011;12556;55.748;13.194;2022-12-07T06:49:00;22.90;;;13.43;;
11771;SDS011;12556;55.748;13.194;2022-12-07T06:51:28;20.53;;;13.60;;
11771;SDS011;12556;55.748;13.194;2022-12-07T06:53:55;19.50;;;14.33;;
11771;SDS011;12556;55.748;13.194;2022-12-07T06:56:22;22.07;;;12.87;;
11771;SDS011;12556;55.748;13.194;2022-12-07T06:58:49;13.17;;;9.10;;
11771;SDS011;12556;55.748;13.194;2022-12-07T07:01:17;13.70;;;8.17;;
11771;SDS011;12556;55.748;13.194;2022-12-07T07:03:45;12.30;;;7.47;;
11771;SDS011;12556;55.748;13.194;2022-12-07T07:06:12;13.43;;;8.67;;
11771;SDS011;12556;55.748;13.194;2022-12-07T07:08:41;13.37;;;9.43;;
11771;SDS011;12556;55.748;13.194;2022-12-07T07:11:08;20.37;;;11.73;;
11771;SDS011;12556;55.748;13.194;2022-12-07T07:13:35;16.53;;;11.00;;
11771;SDS011;12556;55.748;13.194;2022-12-07T07:16:02;13.90;;;10.80;;
11771;SDS011;12556;55.748;13.194;2022-12-07T07:18:29;14.43;;;9.00;;
11771;SDS011;12556;55.748;13.194;2022-12-07T07:20:56;13.63;;;9.27;;
11771;SDS011;12556;55.748;13.194;2022-12-07T07:23:23;12.00;;;9.90;;
11771;SDS011;12556;55.748;13.194;2022-12-07T07:25:52;18.27;;;12.10;;
11771;SDS011;12556;55.748;13.194;2022-12-07T07:28:19;14.23;;;11.03;;
11771;SDS011;12556;55.748;13.194;2022-12-07T07:30:46;12.33;;;9.87;;
11771;SDS011;12556;55.748;13.194;2022-12-07T07:33:13;10.53;;;8.60;;
11771;SDS011;12556;55.748;13.194;2022-12-07T07:35:40;14.57;;;9.17;;
11771;SDS011;12556;55.748;13.194;2022-12-07T07:38:07;15.47;;;10.27;;
11771;SDS011;12556;55.748;13.194;2022-12-07T07:40:34;14.53;;;10.40;;
11771;SDS011;12556;55.748;13.194;2022-12-07T07:43:03;16.07;;;10.80;;
11771;SDS011;12556;55.748;13.194;2022-12-07T07:45:30;13.97;;;9.63;;
11771;SDS011;12556;55.748;13.194;2022-12-07T07:47:56;8.40;;;6.40;;
11771;SDS011;12556;55.748;13.194;2022-12-07T07:50:23;13.63;;;9.93;;
11771;SDS011;12556;55.748;13.194;2022-12-07T07:52:50;12.20;;;8.60;;
11771;SDS011;12556;55.748;13.194;2022-12-07T07:55:17;7.57;;;6.73;;
11771;SDS011;12556;55.748;13.194;2022-12-07T07:57:45;12.43;;;9.37;;
11771;SDS011;12556;55.748;13.194;2022-12-07T08:00:14;10.43;;;8.87;;
11771;SDS011;12556;55.748;13.194;2022-12-07T08:02:42;8.77;;;7.87;;
11771;SDS011;12556;55.748;13.194;2022-12-07T08:05:11;12.23;;;10.20;;
11771;SDS011;12556;55.748;13.194;2022-12-07T08:07:38;10.43;;;8.10;;
11771;SDS011;12556;55.748;13.194;2022-12-07T08:10:05;9.07;;;6.37;;
11771;SDS011;12556;55.748;13.194;2022-12-07T08:12:35;7.63;;;5.73;;
11771;SDS011;12556;55.748;13.194;2022-12-07T08:15:25;5.97;;;4.43;;
11771;SDS011;12556;55.748;13.194;2022-12-07T08:17:53;6.53;;;4.10;;
11771;SDS011;12556;55.748;13.194;2022-12-07T08:20:20;5.20;;;3.80;;
11771;SDS011;12556;55.748;13.194;2022-12-07T08:22:47;5.53;;;3.73;;
11771;SDS011;12556;55.748;13.194;2022-12-07T08:25:14;4.93;;;3.60;;
11771;SDS011;12556;55.748;13.194;2022-12-07T08:27:41;5.07;;;3.90;;
11771;SDS011;12556;55.748;13.194;2022-12-07T08:30:08;4.30;;;3.43;;
11771;SDS011;12556;55.748;13.194;2022-12-07T08:32:36;5.30;;;3.93;;
11771;SDS011;12556;55.748;13.194;2022-12-07T08:35:03;4.57;;;3.43;;
11771;SDS011;12556;55.748;13.194;2022-12-07T08:37:31;5.47;;;3.50;;
11771;SDS011;12556;55.748;13.194;2022-12-07T08:39:58;4.60;;;3.60;;
11771;SDS011;12556;55.748;13.194;2022-12-07T08:42:25;5.40;;;4.00;;
11771;SDS011;12556;55.748;13.194;2022-12-07T08:44:54;4.63;;;3.73;;
11771;SDS011;12556;55.748;13.194;2022-12-07T08:47:22;5.43;;;3.37;;
11771;SDS011;12556;55.748;13.194;2022-12-07T08:49:52;7.27;;;4.10;;
11771;SDS011;12556;55.748;13.194;2022-12-07T08:52:20;4.63;;;4.13;;
11771;SDS011;12556;55.748;13.194;2022-12-07T08:54:47;5.90;;;4.30;;
11771;SDS011;12556;55.748;13.194;2022-12-07T08:57:14;7.07;;;3.63;;
11771;SDS011;12556;55.748;13.194;2022-12-07T08:59:42;5.20;;;4.00;;
11771;SDS011;12556;55.748;13.194;2022-12-07T09:02:09;6.57;;;4.00;;
11771;SDS011;12556;55.748;13.194;2022-12-07T09:04:36;7.40;;;4.60;;
11771;SDS011;12556;55.748;13.194;2022-12-07T09:07:04;5.70;;;4.00;;
11771;SDS011;12556;55.748;13.194;2022-12-07T09:09:31;4.10;;;3.70;;
11771;SDS011;12556;55.748;13.194;2022-12-07T09:11:59;4.13;;;3.67;;
11771;SDS011;12556;55.748;13.194;2022-12-07T09:14:26;3.93;;;3.53;;
11771;SDS011;12556;55.748;13.194;2022-12-07T09:16:52;4.43;;;3.60;;
11771;SDS011;12556;55.748;13.194;2022-12-07T09:19:19;6.00;;;3.40;;
11771;SDS011;12556;55.748;13.194;2022-12-07T09:21:47;3.50;;;3.00;;
11771;SDS011;12556;55.748;13.194;2022-12-07T09:24:15;4.27;;;3.40;;
11771;SDS011;12556;55.748;13.194;2022-12-07T09:26:42;3.17;;;2.83;;
11771;SDS011;12556;55.748;13.194;2022-12-07T09:29:09;4.07;;;2.80;;
11771;SDS011;12556;55.748;13.194;2022-12-07T09:31:36;4.43;;;3.20;;
11771;SDS011;12556;55.748;13.194;2022-12-07T09:34:03;4.77;;;2.93;;
11771;SDS011;12556;55.748;13.194;2022-12-07T09:36:31;3.27;;;2.63;;
11771;SDS011;12556;55.748;13.194;2022-12-07T09:38:58;3.90;;;2.97;;
11771;SDS011;12556;55.748;13.194;2022-12-07T09:41:26;3.87;;;3.20;;
11771;SDS011;12556;55.748;13.194;2022-12-07T09:43:57;5.23;;;3.07;;
11771;SDS011;12556;55.748;13.194;2022-12-07T09:46:29;5.50;;;3.30;;
11771;SDS011;12556;55.748;13.194;2022-12-07T09:49:01;3.60;;;3.30;;
11771;SDS011;12556;55.748;13.194;2022-12-07T09:51:28;5.47;;;4.43;;
11771;SDS011;12556;55.748;13.194;2022-12-07T09:53:56;3.83;;;3.43;;
11771;SDS011;12556;55.748;13.194;2022-12-07T09:56:24;3.80;;;3.30;;
11771;SDS011;12556;55.748;13.194;2022-12-07T09:58:58;6.27;;;3.60;;
11771;SDS011;12556;55.748;13.194;2022-12-07T10:01:27;4.37;;;3.97;;
11771;SDS011;12556;55.748;13.194;2022-12-07T10:04:01;4.33;;;3.27;;
11771;SDS011;12556;55.748;13.194;2022-12-07T10:06:35;5.73;;;3.47;;
11771;SDS011;12556;55.748;13.194;2022-12-07T10:09:07;4.23;;;3.83;;
11771;SDS011;12556;55.748;13.194;2022-12-07T10:11:47;5.73;;;3.73;;
11771;SDS011;12556;55.748;13.194;2022-12-07T10:14:24;3.73;;;3.43;;
11771;SDS011;12556;55.748;13.194;2022-12-07T10:16:53;5.60;;;3.83;;
11771;SDS011;12556;55.748;13.194;2022-12-07T10:19:27;4.67;;;3.57;;
11771;SDS011;12556;55.748;13.194;2022-12-07T10:21:59;8.00;;;4.13;;
11771;SDS011;12556;55.748;13.194;2022-12-07T10:24:27;5.60;;;4.27;;
11771;SDS011;12556;55.748;13.194;2022-12-07T10:26:56;4.37;;;3.97;;
11771;SDS011;12556;55.748;13.194;2022-12-07T10:29:24;3.80;;;3.50;;
11771;SDS011;12556;55.748;13.194;2022-12-07T10:31:56;7.80;;;5.47;;
11771;SDS011;12556;55.748;13.194;2022-12-07T10:34:25;6.80;;;5.10;;
11771;SDS011;12556;55.748;13.194;2022-12-07T10:37:06;7.77;;;5.57;;
11771;SDS011;12556;55.748;13.194;2022-12-07T10:39:42;8.70;;;6.60;;
11771;SDS011;12556;55.748;13.194;2022-12-07T10:42:17;9.73;;;6.70;;
11771;SDS011;12556;55.748;13.194;2022-12-07T10:44:45;8.53;;;6.83;;
11771;SDS011;12556;55.748;13.194;2022-12-07T10:47:27;7.70;;;6.50;;
11771;SDS011;12556;55.748;13.194;2022-12-07T10:50:10;7.43;;;6.63;;
11771;SDS011;12556;55.748;13.194;2022-12-07T10:52:52;7.53;;;6.53;;
11771;SDS011;12556;55.748;13.194;2022-12-07T10:55:33;7.77;;;6.10;;
11771;SDS011;12556;55.748;13.194;2022-12-07T10:58:17;10.70;;;8.13;;
11771;SDS011;12556;55.748;13.194;2022-12-07T11:00:58;9.07;;;8.13;;
11771;SDS011;12556;55.748;13.194;2022-12-07T11:03:34;6.53;;;5.47;;
11771;SDS011;12556;55.748;13.194;2022-12-07T11:06:14;6.40;;;4.43;;
11771;SDS011;12556;55.748;13.194;2022-12-07T11:08:57;6.20;;;4.47;;
11771;SDS011;12556;55.748;13.194;2022-12-07T11:11:31;4.40;;;3.83;;
11771;SDS011;12556;55.748;13.194;2022-12-07T11:14:05;4.60;;;3.83;;
11771;SDS011;12556;55.748;13.194;2022-12-07T11:16:43;4.83;;;3.90;;
11771;SDS011;12556;55.748;13.194;2022-12-07T11:19:28;5.33;;;3.93;;
11771;SDS011;12556;55.748;13.194;2022-12-07T11:22:09;6.53;;;4.33;;
11771;SDS011;12556;55.748;13.194;2022-12-07T11:24:44;5.87;;;3.80;;
11771;SDS011;12556;55.748;13.194;2022-12-07T11:27:20;6.87;;;3.53;;
11771;SDS011;12556;55.748;13.194;2022-12-07T11:30:02;7.00;;;4.57;;
11771;SDS011;12556;55.748;13.194;2022-12-07T11:32:44;5.93;;;4.30;;
11771;SDS011;12556;55.748;13.194;2022-12-07T11:35:20;6.07;;;3.90;;
11771;SDS011;12556;55.748;13.194;2022-12-07T11:37:55;6.33;;;4.07;;
11771;SDS011;12556;55.748;13.194;2022-12-07T11:40:26;8.10;;;4.33;;
11771;SDS011;12556;55.748;13.194;2022-12-07T11:42:59;7.50;;;4.03;;
11771;SDS011;12556;55.748;13.194;2022-12-07T11:45:32;5.10;;;3.73;;
11771;SDS011;12556;55.748;13.194;2022-12-07T11:48:01;9.03;;;4.83;;
11771;SDS011;12556;55.748;13.194;2022-12-07T11:50:33;5.83;;;4.40;;
11771;SDS011;12556;55.748;13.194;2022-12-07T11:53:03;6.80;;;3.90;;
11771;SDS011;12556;55.748;13.194;2022-12-07T11:55:40;4.30;;;3.80;;
11771;SDS011;12556;55.748;13.194;2022-12-07T11:58:20;4.67;;;3.67;;
11771;SDS011;12556;55.748;13.194;2022-12-07T12:01:05;10.37;;;5.37;;
11771;SDS011;12556;55.748;13.194;2022-12-07T12:03:40;7.93;;;5.57;;
11771;SDS011;12556;55.748;13.194;2022-12-07T12:06:11;5.47;;;4.93;;
11771;SDS011;12556;55.748;13.194;2022-12-07T12:08:38;4.90;;;4.10;;
11771;SDS011;12556;55.748;13.194;2022-12-07T12:11:10;6.17;;;4.90;;
11771;SDS011;12556;55.748;13.194;2022-12-07T12:13:56;6.37;;;5.00;;
11771;SDS011;12556;55.748;13.194;2022-12-07T12:19:57;8.27;;;4.90;;
11771;SDS011;12556;55.748;13.194;2022-12-07T12:22:28;6.90;;;4.63;;
11771;SDS011;12556;55.748;13.194;2022-12-07T12:25:02;5.87;;;4.47;;
11771;SDS011;12556;55.748;13.194;2022-12-07T12:27:33;5.90;;;3.97;;
11771;SDS011;12556;55.748;13.194;2022-12-07T12:30:03;5.20;;;4.23;;
11771;SDS011;12556;55.748;13.194;2022-12-07T12:32:35;5.43;;;4.20;;
11771;SDS011;12556;55.748;13.194;2022-12-07T12:35:22;7.83;;;4.93;;
11771;SDS011;12556;55.748;13.194;2022-12-07T12:37:55;6.17;;;4.37;;
11771;SDS011;12556;55.748;13.194;2022-12-07T12:40:53;5.47;;;4.67;;
11771;SDS011;12556;55.748;13.194;2022-12-07T12:49:33;5.93;;;4.23;;
11771;SDS011;12556;55.748;13.194;2022-12-07T12:55:29;6.00;;;4.40;;
11771;SDS011;12556;55.748;13.194;2022-12-07T12:58:37;7.70;;;5.10;;
11771;SDS011;12556;55.748;13.194;2022-12-07T13:07:13;7.03;;;4.40;;
11771;SDS011;12556;55.748;13.194;2022-12-07T13:10:32;7.37;;;4.20;;
11771;SDS011;12556;55.748;13.194;2022-12-07T13:13:25;5.43;;;4.43;;
11771;SDS011;12556;55.748;13.194;2022-12-07T13:19:21;6.47;;;4.37;;
11771;SDS011;12556;55.748;13.194;2022-12-07T13:25:19;5.27;;;4.13;;
11771;SDS011;12556;55.748;13.194;2022-12-07T13:27:56;6.27;;;4.40;;
11771;SDS011;12556;55.748;13.194;2022-12-07T13:30:27;5.73;;;4.83;;
11771;SDS011;12556;55.748;13.194;2022-12-07T13:32:56;4.63;;;3.50;;
11771;SDS011;12556;55.748;13.194;2022-12-07T13:35:28;6.40;;;4.10;;
11771;SDS011;12556;55.748;13.194;2022-12-07T13:38:01;5.67;;;4.77;;
11771;SDS011;12556;55.748;13.194;2022-12-07T13:40:30;3.90;;;3.40;;
11771;SDS011;12556;55.748;13.194;2022-12-07T13:42:59;5.13;;;3.67;;
11771;SDS011;12556;55.748;13.194;2022-12-07T13:45:28;4.27;;;3.50;;
11771;SDS011;12556;55.748;13.194;2022-12-07T13:48:15;3.57;;;3.27;;
11771;SDS011;12556;55.748;13.194;2022-12-07T13:50:52;4.33;;;3.40;;
11771;SDS011;12556;55.748;13.194;2022-12-07T13:53:20;4.67;;;2.87;;
11771;SDS011;12556;55.748;13.194;2022-12-07T13:55:47;4.43;;;3.30;;
11771;SDS011;12556;55.748;13.194;2022-12-07T13:58:16;4.50;;;2.90;;
11771;SDS011;12556;55.748;13.194;2022-12-07T14:00:43;3.03;;;2.67;;
11771;SDS011;12556;55.748;13.194;2022-12-07T14:03:23;3.77;;;3.00;;
11771;SDS011;12556;55.748;13.194;2022-12-07T14:06:04;3.73;;;3.00;;
11771;SDS011;12556;55.748;13.194;2022-12-07T14:08:41;3.90;;;2.80;;
11771;SDS011;12556;55.748;13.194;2022-12-07T14:11:09;3.07;;;2.70;;
11771;SDS011;12556;55.748;13.194;2022-12-07T14:13:57;3.83;;;2.77;;
11771;SDS011;12556;55.748;13.194;2022-12-07T14:16:27;3.30;;;2.97;;
11771;SDS011;12556;55.748;13.194;2022-12-07T14:18:55;2.87;;;2.60;;
11771;SDS011;12556;55.748;13.194;2022-12-07T14:21:24;3.10;;;2.80;;
11771;SDS011;12556;55.748;13.194;2022-12-07T14:24:02;4.00;;;3.10;;
11771;SDS011;12556;55.748;13.194;2022-12-07T14:26:36;3.27;;;2.90;;
11771;SDS011;12556;55.748;13.194;2022-12-07T14:29:30;4.33;;;2.80;;
11771;SDS011;12556;55.748;13.194;2022-12-07T14:32:10;4.17;;;2.50;;
11771;SDS011;12556;55.748;13.194;2022-12-07T14:34:55;3.43;;;2.60;;
11771;SDS011;12556;55.748;13.194;2022-12-07T14:37:23;3.33;;;2.97;;
11771;SDS011;12556;55.748;13.194;2022-12-07T14:39:50;3.33;;;3.03;;
11771;SDS011;12556;55.748;13.194;2022-12-07T14:42:17;3.00;;;2.50;;
11771;SDS011;12556;55.748;13.194;2022-12-07T14:44:46;3.90;;;2.87;;
11771;SDS011;12556;55.748;13.194;2022-12-07T14:47:13;4.70;;;3.57;;
11771;SDS011;12556;55.748;13.194;2022-12-07T14:49:40;4.03;;;2.70;;
11771;SDS011;12556;55.748;13.194;2022-12-07T14:52:08;3.33;;;3.00;;
11771;SDS011;12556;55.748;13.194;2022-12-07T14:54:40;2.70;;;2.47;;
11771;SDS011;12556;55.748;13.194;2022-12-07T14:57:08;2.87;;;2.50;;
11771;SDS011;12556;55.748;13.194;2022-12-07T14:59:35;2.90;;;2.57;;
11771;SDS011;12556;55.748;13.194;2022-12-07T15:02:03;5.37;;;2.80;;
11771;SDS011;12556;55.748;13.194;2022-12-07T15:04:30;3.80;;;2.30;;
11771;SDS011;12556;55.748;13.194;2022-12-07T15:06:58;2.60;;;2.20;;
11771;SDS011;12556;55.748;13.194;2022-12-07T15:09:26;2.80;;;2.17;;
11771;SDS011;12556;55.748;13.194;2022-12-07T15:11:52;2.80;;;2.30;;
11771;SDS011;12556;55.748;13.194;2022-12-07T15:14:19;3.57;;;2.23;;
11771;SDS011;12556;55.748;13.194;2022-12-07T15:16:46;2.87;;;2.10;;
11771;SDS011;12556;55.748;13.194;2022-12-07T15:19:15;2.40;;;2.03;;